UAE201 OMDB-KJFK
Flight info
| Callsign | UAE201 |
|---|---|
| Flight time | N/A |
| Altitude | 30000 |
| Route | SENP2F SENPA N571 ALPOB L768 VATIM L550 NOVPA N697 MENLI L677 CVO L617 NABSI M872 METRU ARLOS DOBIX SONAK MORJA UA411 BNA UZ444 DAHRA UA411 MOS UM744 CARBO GOLFO OBAKA UMUKA MGA MAR SVL M744 LASIB GUNTI 40N020W 41N030W 4230N04000W 44N050W BOBTU JAROM LOMPI KANNI PLYMM PARCH4 |
| Aircraft | B77W/H-VGDW/C |
Departure
| Time | 2026-05-05 23:22 |
|---|---|
| Airport | Dubai International Airport (OMDB) |
Arrival
| Time | N/A |
|---|---|
| Airport | John F. Kennedy International Airport (KJFK) |
| Time | Latitude | Longitude | Altitude | Speed | Heading |
|---|---|---|---|---|---|
| 2026-05-05 22:49 | 25.24476 | 55.37143 | 49 ft | 0 kts | 212° |
| 2026-05-05 23:12 | 25.24480 | 55.37145 | 48 ft | 2 kts | 212° |
| 2026-05-05 23:12 | 25.24492 | 55.37154 | 48 ft | 2 kts | 211° |
| 2026-05-05 23:12 | 25.24505 | 55.37163 | 48 ft | 2 kts | 211° |
| 2026-05-05 23:13 | 25.24518 | 55.37172 | 49 ft | 2 kts | 212° |
| 2026-05-05 23:13 | 25.24526 | 55.37177 | 49 ft | 2 kts | 211° |
| 2026-05-05 23:13 | 25.24540 | 55.37183 | 50 ft | 2 kts | 185° |
| 2026-05-05 23:13 | 25.24555 | 55.37182 | 50 ft | 2 kts | 162° |
| 2026-05-05 23:14 | 25.24568 | 55.37175 | 50 ft | 2 kts | 141° |
| 2026-05-05 23:14 | 25.24577 | 55.37164 | 50 ft | 0 kts | 121° |
| 2026-05-05 23:14 | 25.24579 | 55.37160 | 50 ft | 0 kts | 120° |
| 2026-05-05 23:14 | 25.24579 | 55.37161 | 50 ft | 0 kts | 120° |
| 2026-05-05 23:16 | 25.24562 | 55.37192 | 51 ft | 8 kts | 121° |
| 2026-05-05 23:16 | 25.24537 | 55.37236 | 53 ft | 4 kts | 122° |
| 2026-05-05 23:16 | 25.24504 | 55.37294 | 55 ft | 11 kts | 122° |
| 2026-05-05 23:17 | 25.24469 | 55.37357 | 56 ft | 12 kts | 118° |
| 2026-05-05 23:17 | 25.24434 | 55.37483 | 52 ft | 17 kts | 93° |
| 2026-05-05 23:17 | 25.24422 | 55.37608 | 52 ft | 14 kts | 102° |
| 2026-05-05 23:17 | 25.24381 | 55.37702 | 52 ft | 11 kts | 121° |
| 2026-05-05 23:18 | 25.24342 | 55.37774 | 55 ft | 8 kts | 107° |
| 2026-05-05 23:18 | 25.24346 | 55.37812 | 57 ft | 1 kts | 64° |
| 2026-05-05 23:18 | 25.24346 | 55.37814 | 57 ft | 0 kts | 62° |
| 2026-05-05 23:19 | 25.24365 | 55.37836 | 58 ft | 13 kts | 41° |
| 2026-05-05 23:19 | 25.24474 | 55.37923 | 58 ft | 19 kts | 33° |
| 2026-05-05 23:19 | 25.24570 | 55.37997 | 58 ft | 10 kts | 41° |
| 2026-05-05 23:19 | 25.24574 | 55.38079 | 58 ft | 10 kts | 112° |
| 2026-05-05 23:20 | 25.24533 | 55.38159 | 58 ft | 12 kts | 120° |
| 2026-05-05 23:20 | 25.24519 | 55.38235 | 59 ft | 12 kts | 66° |
| 2026-05-05 23:20 | 25.24582 | 55.38295 | 59 ft | 7 kts | 32° |
| 2026-05-05 23:20 | 25.24651 | 55.38305 | 58 ft | 6 kts | 319° |
| 2026-05-05 23:21 | 25.24672 | 55.38269 | 58 ft | 17 kts | 302° |
| 2026-05-05 23:21 | 25.24859 | 55.37933 | 57 ft | 85 kts | 301° |
| 2026-05-05 23:21 | 25.25291 | 55.37150 | 52 ft | 151 kts | 301° |
| 2026-05-05 23:21 | 25.25949 | 55.35967 | 45 ft | 209 kts | 302° |
| 2026-05-05 23:22 | 25.26783 | 55.34489 | 366 ft | 235 kts | 303° |
| 2026-05-05 23:22 | 25.27661 | 55.32916 | 1139 ft | 252 kts | 303° |
| 2026-05-05 23:22 | 25.28587 | 55.31236 | 2069 ft | 261 kts | 303° |
| 2026-05-05 23:22 | 25.29433 | 55.29460 | 2879 ft | 261 kts | 289° |
| 2026-05-05 23:23 | 25.29764 | 55.27417 | 3190 ft | 277 kts | 276° |
| 2026-05-05 23:23 | 25.29914 | 55.25270 | 3702 ft | 283 kts | 276° |
| 2026-05-05 23:23 | 25.30068 | 55.23106 | 4282 ft | 287 kts | 276° |
| 2026-05-05 23:23 | 25.30236 | 55.20914 | 4953 ft | 286 kts | 276° |
| 2026-05-05 23:24 | 25.30388 | 55.18742 | 5565 ft | 287 kts | 271° |
| 2026-05-05 23:24 | 25.30297 | 55.16504 | 6146 ft | 290 kts | 266° |
| 2026-05-05 23:24 | 25.30121 | 55.14294 | 6689 ft | 293 kts | 266° |
| 2026-05-05 23:24 | 25.29940 | 55.12036 | 7194 ft | 296 kts | 265° |
| 2026-05-05 23:25 | 25.29764 | 55.09784 | 7688 ft | 299 kts | 265° |
| 2026-05-05 23:25 | 25.29587 | 55.07492 | 8232 ft | 301 kts | 265° |
| 2026-05-05 23:25 | 25.29407 | 55.05167 | 8767 ft | 302 kts | 264° |
| 2026-05-05 23:25 | 25.29231 | 55.02876 | 9278 ft | 303 kts | 264° |
| 2026-05-05 23:26 | 25.29049 | 55.00531 | 9788 ft | 305 kts | 264° |
| 2026-05-05 23:26 | 25.28864 | 54.98150 | 10212 ft | 319 kts | 265° |
| 2026-05-05 23:26 | 25.28670 | 54.95650 | 10602 ft | 336 kts | 265° |
| 2026-05-05 23:26 | 25.28501 | 54.93018 | 11015 ft | 352 kts | 268° |
| 2026-05-05 23:27 | 25.28435 | 54.90265 | 11464 ft | 367 kts | 269° |
| 2026-05-05 23:27 | 25.28369 | 54.87376 | 11930 ft | 382 kts | 269° |
| 2026-05-05 23:27 | 25.28291 | 54.84417 | 12390 ft | 396 kts | 269° |
| 2026-05-05 23:27 | 25.28206 | 54.81295 | 12837 ft | 411 kts | 269° |
| 2026-05-05 23:28 | 25.28116 | 54.78097 | 13382 ft | 422 kts | 269° |
| 2026-05-05 23:28 | 25.28202 | 54.74849 | 14080 ft | 427 kts | 278° |
| 2026-05-05 23:28 | 25.28791 | 54.71637 | 14848 ft | 430 kts | 286° |
| 2026-05-05 23:28 | 25.29583 | 54.68453 | 15580 ft | 434 kts | 287° |
| 2026-05-05 23:29 | 25.30402 | 54.65216 | 16253 ft | 439 kts | 287° |
| 2026-05-05 23:29 | 25.31216 | 54.62002 | 16860 ft | 443 kts | 287° |
| 2026-05-05 23:29 | 25.32046 | 54.58716 | 17468 ft | 447 kts | 287° |
| 2026-05-05 23:29 | 25.32885 | 54.55392 | 18083 ft | 451 kts | 287° |
| 2026-05-05 23:30 | 25.33736 | 54.52046 | 18739 ft | 453 kts | 287° |
| 2026-05-05 23:30 | 25.34633 | 54.48730 | 19411 ft | 453 kts | 287° |
| 2026-05-05 23:30 | 25.35541 | 54.45398 | 20030 ft | 455 kts | 287° |
| 2026-05-05 23:30 | 25.36453 | 54.42036 | 20589 ft | 458 kts | 287° |
| 2026-05-05 23:31 | 25.37363 | 54.38678 | 21134 ft | 460 kts | 287° |
| 2026-05-05 23:31 | 25.38290 | 54.35250 | 21663 ft | 463 kts | 287° |
| 2026-05-05 23:31 | 25.39210 | 54.31838 | 22191 ft | 465 kts | 286° |
| 2026-05-05 23:31 | 25.40125 | 54.28442 | 22751 ft | 466 kts | 286° |
| 2026-05-05 23:32 | 25.41024 | 54.24975 | 23297 ft | 466 kts | 285° |
| 2026-05-05 23:32 | 25.41874 | 54.21540 | 23792 ft | 468 kts | 285° |
| 2026-05-05 23:32 | 25.42737 | 54.18051 | 24249 ft | 470 kts | 285° |
| 2026-05-05 23:32 | 25.43596 | 54.14574 | 24661 ft | 472 kts | 285° |
| 2026-05-05 23:33 | 25.44459 | 54.11086 | 25077 ft | 473 kts | 285° |
| 2026-05-05 23:33 | 25.45312 | 54.07601 | 25485 ft | 474 kts | 284° |
| 2026-05-05 23:33 | 25.46166 | 54.04047 | 25861 ft | 475 kts | 284° |
| 2026-05-05 23:33 | 25.47012 | 54.00521 | 26190 ft | 477 kts | 284° |
| 2026-05-05 23:34 | 25.47859 | 53.96989 | 26528 ft | 478 kts | 284° |
| 2026-05-05 23:34 | 25.48710 | 53.93440 | 26873 ft | 478 kts | 284° |
| 2026-05-05 23:34 | 25.49560 | 53.89895 | 27188 ft | 479 kts | 284° |
| 2026-05-05 23:34 | 25.50406 | 53.86363 | 27547 ft | 478 kts | 284° |
| 2026-05-05 23:35 | 25.51255 | 53.82813 | 28014 ft | 475 kts | 284° |
| 2026-05-05 23:35 | 25.52101 | 53.79278 | 28541 ft | 469 kts | 284° |
| 2026-05-05 23:35 | 25.52923 | 53.75839 | 29015 ft | 465 kts | 284° |
| 2026-05-05 23:35 | 25.53751 | 53.72372 | 29361 ft | 463 kts | 284° |
| 2026-05-05 23:36 | 25.54575 | 53.68930 | 29567 ft | 464 kts | 284° |
| 2026-05-05 23:36 | 25.55406 | 53.65457 | 29717 ft | 466 kts | 284° |
| 2026-05-05 23:36 | 25.57069 | 53.58491 | 29753 ft | 472 kts | 284° |
| 2026-05-05 23:37 | 25.58722 | 53.51556 | 29754 ft | 463 kts | 284° |
| 2026-05-05 23:37 | 25.60361 | 53.44662 | 29753 ft | 465 kts | 283° |
| 2026-05-05 23:38 | 25.61999 | 53.37753 | 29754 ft | 464 kts | 283° |
| 2026-05-05 23:38 | 25.63638 | 53.30810 | 29761 ft | 464 kts | 283° |
| 2026-05-05 23:39 | 25.65255 | 53.23947 | 29761 ft | 463 kts | 283° |
| 2026-05-05 23:39 | 25.66879 | 53.17033 | 29757 ft | 464 kts | 283° |
| 2026-05-05 23:40 | 25.68501 | 53.10113 | 29754 ft | 464 kts | 283° |
| 2026-05-05 23:40 | 25.70141 | 53.03240 | 29750 ft | 464 kts | 286° |
| 2026-05-05 23:41 | 25.72791 | 52.96686 | 29747 ft | 467 kts | 295° |
| 2026-05-05 23:41 | 25.75803 | 52.90323 | 29739 ft | 468 kts | 295° |
| 2026-05-05 23:42 | 25.78811 | 52.83962 | 29737 ft | 467 kts | 295° |
| 2026-05-05 23:42 | 25.81833 | 52.77555 | 29737 ft | 467 kts | 295° |
| 2026-05-05 23:43 | 25.84830 | 52.71192 | 29738 ft | 467 kts | 295° |
| 2026-05-05 23:43 | 25.87827 | 52.64817 | 29736 ft | 468 kts | 295° |
| 2026-05-05 23:44 | 25.90824 | 52.58380 | 29732 ft | 467 kts | 294° |
| 2026-05-05 23:44 | 25.93674 | 52.51899 | 29729 ft | 467 kts | 293° |
| 2026-05-05 23:45 | 25.96507 | 52.45453 | 29728 ft | 467 kts | 293° |
| 2026-05-05 23:45 | 25.99367 | 52.38947 | 29724 ft | 467 kts | 294° |
| 2026-05-05 23:46 | 26.02248 | 52.32492 | 29749 ft | 469 kts | 293° |
| 2026-05-05 23:46 | 26.05155 | 52.25979 | 29752 ft | 467 kts | 293° |
| 2026-05-05 23:47 | 26.08053 | 52.19476 | 29750 ft | 467 kts | 293° |
| 2026-05-05 23:47 | 26.10946 | 52.12971 | 29740 ft | 467 kts | 293° |
| 2026-05-05 23:48 | 26.13841 | 52.06452 | 29742 ft | 469 kts | 293° |
| 2026-05-05 23:48 | 26.16734 | 51.99930 | 29739 ft | 467 kts | 293° |
| 2026-05-05 23:49 | 26.19635 | 51.93485 | 29737 ft | 467 kts | 293° |
| 2026-05-05 23:49 | 26.22503 | 51.87003 | 29740 ft | 468 kts | 293° |
| 2026-05-05 23:50 | 26.25372 | 51.80480 | 29735 ft | 468 kts | 293° |
| 2026-05-05 23:50 | 26.28255 | 51.74017 | 29735 ft | 467 kts | 293° |
| 2026-05-05 23:51 | 26.31151 | 51.67530 | 29739 ft | 466 kts | 293° |
| 2026-05-05 23:51 | 26.34042 | 51.61041 | 29740 ft | 467 kts | 293° |
| 2026-05-05 23:52 | 26.36930 | 51.54548 | 29740 ft | 466 kts | 293° |
| 2026-05-05 23:52 | 26.39335 | 51.47848 | 29742 ft | 462 kts | 287° |
| 2026-05-05 23:53 | 26.41477 | 51.41129 | 29738 ft | 461 kts | 287° |
| 2026-05-05 23:53 | 26.43636 | 51.34360 | 29737 ft | 462 kts | 286° |
| 2026-05-05 23:54 | 26.45788 | 51.27623 | 29744 ft | 462 kts | 286° |
| 2026-05-05 23:54 | 26.47939 | 51.20879 | 29743 ft | 463 kts | 286° |
| 2026-05-05 23:55 | 26.50083 | 51.14149 | 29742 ft | 462 kts | 286° |
| 2026-05-05 23:55 | 26.52235 | 51.07382 | 29749 ft | 461 kts | 286° |
| 2026-05-05 23:56 | 26.54367 | 51.00663 | 29746 ft | 463 kts | 286° |
| 2026-05-05 23:56 | 26.56519 | 50.93872 | 29754 ft | 461 kts | 286° |
| 2026-05-05 23:57 | 26.58628 | 50.87148 | 29758 ft | 461 kts | 285° |
| 2026-05-05 23:57 | 26.60727 | 50.80371 | 29761 ft | 460 kts | 285° |
| 2026-05-05 23:58 | 26.62802 | 50.73663 | 29754 ft | 459 kts | 285° |
| 2026-05-05 23:58 | 26.64870 | 50.66929 | 29754 ft | 463 kts | 285° |
| 2026-05-05 23:59 | 26.66904 | 50.60061 | 29751 ft | 464 kts | 284° |
| 2026-05-05 23:59 | 26.68926 | 50.53219 | 29743 ft | 463 kts | 285° |
| 2026-05-06 00:00 | 26.70933 | 50.46318 | 29741 ft | 463 kts | 283° |
| 2026-05-06 00:00 | 26.72699 | 50.39396 | 29744 ft | 460 kts | 282° |
| 2026-05-06 00:01 | 26.74453 | 50.32500 | 29754 ft | 463 kts | 282° |
| 2026-05-06 00:01 | 26.76235 | 50.25589 | 29754 ft | 463 kts | 283° |
| 2026-05-06 00:02 | 26.78284 | 50.18755 | 29753 ft | 463 kts | 284° |
| 2026-05-06 00:02 | 26.80355 | 50.11870 | 29756 ft | 462 kts | 284° |
| 2026-05-06 00:03 | 26.82388 | 50.05069 | 29761 ft | 460 kts | 284° |
| 2026-05-06 00:03 | 26.84428 | 49.98215 | 29764 ft | 460 kts | 284° |
| 2026-05-06 00:04 | 26.86450 | 49.91403 | 29763 ft | 460 kts | 284° |
| 2026-05-06 00:04 | 26.88469 | 49.84581 | 29758 ft | 459 kts | 284° |
| 2026-05-06 00:05 | 26.91482 | 49.74377 | 29758 ft | 459 kts | 284° |
| 2026-05-06 00:06 | 26.93493 | 49.67542 | 29761 ft | 461 kts | 284° |
| 2026-05-06 00:06 | 26.95498 | 49.60720 | 29759 ft | 458 kts | 284° |
| 2026-05-06 00:07 | 26.97499 | 49.53894 | 29755 ft | 462 kts | 284° |
| 2026-05-06 00:07 | 26.99504 | 49.47044 | 29755 ft | 462 kts | 284° |
| 2026-05-06 00:08 | 27.01724 | 49.40284 | 29752 ft | 466 kts | 291° |
| 2026-05-06 00:08 | 27.04875 | 49.33904 | 29744 ft | 470 kts | 294° |
| 2026-05-06 00:09 | 27.08103 | 49.27504 | 29765 ft | 468 kts | 294° |
| 2026-05-06 00:09 | 27.11317 | 49.21117 | 29760 ft | 469 kts | 294° |
| 2026-05-06 00:10 | 27.14533 | 49.14711 | 29764 ft | 469 kts | 294° |
| 2026-05-06 00:10 | 27.17734 | 49.08326 | 29768 ft | 468 kts | 294° |
| 2026-05-06 00:11 | 27.20928 | 49.01945 | 29761 ft | 467 kts | 294° |
| 2026-05-06 00:11 | 27.24114 | 48.95563 | 29765 ft | 469 kts | 294° |
| 2026-05-06 00:12 | 27.27310 | 48.89151 | 29772 ft | 468 kts | 294° |
| 2026-05-06 00:12 | 27.30511 | 48.82720 | 29765 ft | 469 kts | 294° |
| 2026-05-06 00:13 | 27.33699 | 48.76305 | 29768 ft | 469 kts | 294° |
| 2026-05-06 00:13 | 27.36865 | 48.69927 | 29773 ft | 467 kts | 293° |
| 2026-05-06 00:14 | 27.40042 | 48.63512 | 29781 ft | 471 kts | 294° |
| 2026-05-06 00:14 | 27.43236 | 48.57060 | 29787 ft | 467 kts | 293° |
| 2026-05-06 00:15 | 27.46415 | 48.50623 | 29783 ft | 469 kts | 293° |
| 2026-05-06 00:15 | 27.49589 | 48.44188 | 29796 ft | 468 kts | 293° |
| 2026-05-06 00:16 | 27.52752 | 48.37765 | 29800 ft | 470 kts | 293° |
| 2026-05-06 00:16 | 27.55902 | 48.31361 | 29824 ft | 467 kts | 293° |
| 2026-05-06 00:17 | 27.59086 | 48.24881 | 29830 ft | 469 kts | 292° |
| 2026-05-06 00:17 | 27.62234 | 48.18477 | 29829 ft | 467 kts | 292° |
| 2026-05-06 00:18 | 27.65386 | 48.12055 | 29832 ft | 468 kts | 293° |
| 2026-05-06 00:18 | 27.68533 | 48.05633 | 29838 ft | 467 kts | 292° |
| 2026-05-06 00:19 | 27.71685 | 47.99181 | 29847 ft | 467 kts | 292° |
| 2026-05-06 00:19 | 27.74829 | 47.92725 | 29852 ft | 468 kts | 292° |
| 2026-05-06 00:20 | 27.77955 | 47.86301 | 29858 ft | 466 kts | 292° |
| 2026-05-06 00:20 | 27.81078 | 47.79871 | 29861 ft | 465 kts | 292° |
| 2026-05-06 00:21 | 27.84133 | 47.73400 | 29862 ft | 463 kts | 288° |
| 2026-05-06 00:21 | 27.86343 | 47.66647 | 29869 ft | 460 kts | 284° |
| 2026-05-06 00:22 | 27.88460 | 47.59816 | 29870 ft | 458 kts | 284° |
| 2026-05-06 00:22 | 27.90576 | 47.52981 | 29882 ft | 458 kts | 284° |
| 2026-05-06 00:23 | 27.92676 | 47.46186 | 29887 ft | 460 kts | 284° |
| 2026-05-06 00:23 | 27.94801 | 47.39302 | 29884 ft | 458 kts | 284° |
| 2026-05-06 00:24 | 27.96905 | 47.32472 | 29905 ft | 459 kts | 283° |
| 2026-05-06 00:24 | 27.99005 | 47.25643 | 29911 ft | 459 kts | 283° |
| 2026-05-06 00:25 | 28.01097 | 47.18826 | 29902 ft | 459 kts | 283° |
| 2026-05-06 00:25 | 28.03198 | 47.11964 | 29907 ft | 460 kts | 283° |
| 2026-05-06 00:26 | 28.05286 | 47.05138 | 29906 ft | 459 kts | 283° |
| 2026-05-06 00:26 | 28.07375 | 46.98288 | 29904 ft | 459 kts | 284° |
| 2026-05-06 00:27 | 28.09465 | 46.91422 | 29910 ft | 460 kts | 284° |
| 2026-05-06 00:27 | 28.11600 | 46.84609 | 29906 ft | 462 kts | 285° |
| 2026-05-06 00:28 | 28.13904 | 46.77759 | 29905 ft | 463 kts | 285° |
| 2026-05-06 00:28 | 28.16184 | 46.70947 | 29911 ft | 465 kts | 285° |
| 2026-05-06 00:29 | 28.18473 | 46.64083 | 29905 ft | 462 kts | 285° |
| 2026-05-06 00:29 | 28.20734 | 46.57275 | 29905 ft | 463 kts | 285° |
| 2026-05-06 00:30 | 28.23010 | 46.50407 | 29906 ft | 463 kts | 285° |
| 2026-05-06 00:30 | 28.25289 | 46.43513 | 29907 ft | 463 kts | 285° |
| 2026-05-06 00:31 | 28.27545 | 46.36673 | 29913 ft | 464 kts | 285° |
| 2026-05-06 00:31 | 28.29807 | 46.29803 | 29929 ft | 463 kts | 284° |
| 2026-05-06 00:32 | 28.32049 | 46.22978 | 29930 ft | 464 kts | 284° |
| 2026-05-06 00:32 | 28.34305 | 46.16099 | 29926 ft | 464 kts | 284° |
| 2026-05-06 00:33 | 28.36590 | 46.09256 | 29920 ft | 466 kts | 287° |
| 2026-05-06 00:33 | 28.39144 | 46.02467 | 29915 ft | 468 kts | 287° |
| 2026-05-06 00:34 | 28.41703 | 45.95645 | 29920 ft | 467 kts | 287° |
| 2026-05-06 00:34 | 28.44241 | 45.88840 | 29931 ft | 469 kts | 287° |
| 2026-05-06 00:35 | 28.46785 | 45.81991 | 29935 ft | 467 kts | 287° |
| 2026-05-06 00:35 | 28.49309 | 45.75174 | 29943 ft | 468 kts | 287° |